Terminal Aerodrome Forecast
Issued by NWS

Home | Current Version | Previous Version | Text Only | Print | Product List | Glossary On
Versions: 1 2 3 4 5 6 7 8 9 10 11 12 13
000
FTPA31 PHFO 271126
TAFHOG
TAF
PHOG 271126Z 2712/2812 14006KT P6SM VCSH FEW035 SCT050
     FM272000 06013KT P6SM VCSH FEW035 BKN050
     FM280500 08008KT P6SM VCSH FEW035 BKN050
     FM280800 14006KT P6SM VCSH FEW035 BKN050
      AMD LTD TO VIS AND WIND TIL 271600=

USA.gov is the U.S. government's official web portal to all federal, state and local government web resources and services.